sensor_id;sensor_type;location;lat;lon;timestamp;P1;durP1;ratioP1;P2;durP2;ratioP2
68938;SDS011;59064;45.294;11.816;2023-02-01T00:02:06;93.20;;;47.00;;
68938;SDS011;59064;45.294;11.816;2023-02-01T00:04:31;96.10;;;49.10;;
68938;SDS011;59064;45.294;11.816;2023-02-01T00:06:57;101.30;;;51.20;;
68938;SDS011;59064;45.294;11.816;2023-02-01T00:09:23;102.30;;;54.00;;
68938;SDS011;59064;45.294;11.816;2023-02-01T00:11:48;107.40;;;54.80;;
68938;SDS011;59064;45.294;11.816;2023-02-01T00:14:14;107.30;;;54.90;;
68938;SDS011;59064;45.294;11.816;2023-02-01T00:16:40;101.90;;;53.70;;
68938;SDS011;59064;45.294;11.816;2023-02-01T00:19:15;98.00;;;47.80;;
68938;SDS011;59064;45.294;11.816;2023-02-01T00:21:41;114.50;;;58.20;;
68938;SDS011;59064;45.294;11.816;2023-02-01T00:24:09;105.60;;;55.70;;
68938;SDS011;59064;45.294;11.816;2023-02-01T00:26:43;96.10;;;51.60;;
68938;SDS011;59064;45.294;11.816;2023-02-01T00:29:20;93.40;;;43.70;;
68938;SDS011;59064;45.294;11.816;2023-02-01T00:31:46;113.60;;;59.10;;
68938;SDS011;59064;45.294;11.816;2023-02-01T00:34:16;114.60;;;54.90;;
68938;SDS011;59064;45.294;11.816;2023-02-01T00:36:43;120.90;;;60.60;;
68938;SDS011;59064;45.294;11.816;2023-02-01T00:39:09;102.70;;;49.10;;
68938;SDS011;59064;45.294;11.816;2023-02-01T00:41:35;117.00;;;55.90;;
68938;SDS011;59064;45.294;11.816;2023-02-01T00:44:01;103.60;;;49.90;;
68938;SDS011;59064;45.294;11.816;2023-02-01T00:46:27;126.40;;;61.10;;
68938;SDS011;59064;45.294;11.816;2023-02-01T00:48:54;115.60;;;57.30;;
68938;SDS011;59064;45.294;11.816;2023-02-01T00:51:23;116.50;;;58.20;;
68938;SDS011;59064;45.294;11.816;2023-02-01T00:53:51;129.10;;;62.40;;
68938;SDS011;59064;45.294;11.816;2023-02-01T00:56:18;129.10;;;62.10;;
68938;SDS011;59064;45.294;11.816;2023-02-01T00:58:44;120.90;;;59.40;;
68938;SDS011;59064;45.294;11.816;2023-02-01T01:01:22;105.10;;;52.80;;
68938;SDS011;59064;45.294;11.816;2023-02-01T01:03:52;110.90;;;56.10;;
68938;SDS011;59064;45.294;11.816;2023-02-01T01:06:29;103.00;;;50.10;;
68938;SDS011;59064;45.294;11.816;2023-02-01T01:08:57;114.80;;;58.20;;
68938;SDS011;59064;45.294;11.816;2023-02-01T01:11:27;109.20;;;56.00;;
68938;SDS011;59064;45.294;11.816;2023-02-01T01:13:55;105.30;;;53.30;;
68938;SDS011;59064;45.294;11.816;2023-02-01T01:16:24;87.60;;;44.80;;
68938;SDS011;59064;45.294;11.816;2023-02-01T01:18:51;91.00;;;43.90;;
68938;SDS011;59064;45.294;11.816;2023-02-01T01:21:17;101.60;;;51.00;;
68938;SDS011;59064;45.294;11.816;2023-02-01T01:23:44;92.20;;;50.00;;
68938;SDS011;59064;45.294;11.816;2023-02-01T01:26:19;103.30;;;51.70;;
68938;SDS011;59064;45.294;11.816;2023-02-01T01:28:48;100.90;;;51.00;;
68938;SDS011;59064;45.294;11.816;2023-02-01T01:31:15;103.60;;;54.20;;
68938;SDS011;59064;45.294;11.816;2023-02-01T01:33:42;94.80;;;48.90;;
68938;SDS011;59064;45.294;11.816;2023-02-01T01:36:09;91.50;;;44.30;;
68938;SDS011;59064;45.294;11.816;2023-02-01T01:38:37;100.60;;;51.20;;
68938;SDS011;59064;45.294;11.816;2023-02-01T01:41:03;95.10;;;50.00;;
68938;SDS011;59064;45.294;11.816;2023-02-01T01:43:59;103.50;;;52.50;;
68938;SDS011;59064;45.294;11.816;2023-02-01T01:46:35;90.20;;;45.20;;
68938;SDS011;59064;45.294;11.816;2023-02-01T01:51:46;90.70;;;48.80;;
68938;SDS011;59064;45.294;11.816;2023-02-01T01:54:29;97.00;;;49.50;;
68938;SDS011;59064;45.294;11.816;2023-02-01T01:57:01;101.40;;;52.10;;
68938;SDS011;59064;45.294;11.816;2023-02-01T01:59:38;94.90;;;45.80;;
68938;SDS011;59064;45.294;11.816;2023-02-01T02:02:05;89.90;;;49.20;;
68938;SDS011;59064;45.294;11.816;2023-02-01T02:04:32;103.00;;;50.40;;
68938;SDS011;59064;45.294;11.816;2023-02-01T02:07:02;93.40;;;48.90;;
68938;SDS011;59064;45.294;11.816;2023-02-01T02:09:30;96.20;;;50.40;;
68938;SDS011;59064;45.294;11.816;2023-02-01T02:11:56;90.10;;;45.60;;
68938;SDS011;59064;45.294;11.816;2023-02-01T02:14:23;92.20;;;46.50;;
68938;SDS011;59064;45.294;11.816;2023-02-01T02:31:13;98.00;;;49.70;;
68938;SDS011;59064;45.294;11.816;2023-02-01T02:40:18;101.40;;;51.30;;
68938;SDS011;59064;45.294;11.816;2023-02-01T02:43:02;99.60;;;51.30;;
68938;SDS011;59064;45.294;11.816;2023-02-01T02:46:00;102.00;;;51.70;;
68938;SDS011;59064;45.294;11.816;2023-02-01T02:48:52;107.20;;;52.80;;
68938;SDS011;59064;45.294;11.816;2023-02-01T02:54:27;102.00;;;50.20;;
68938;SDS011;59064;45.294;11.816;2023-02-01T02:57:14;95.10;;;48.10;;
68938;SDS011;59064;45.294;11.816;2023-02-01T03:00:05;100.90;;;49.90;;
68938;SDS011;59064;45.294;11.816;2023-02-01T03:02:53;100.00;;;48.70;;
68938;SDS011;59064;45.294;11.816;2023-02-01T03:05:41;106.60;;;51.80;;
68938;SDS011;59064;45.294;11.816;2023-02-01T03:11:08;95.60;;;49.50;;
68938;SDS011;59064;45.294;11.816;2023-02-01T03:19:03;94.50;;;46.40;;
68938;SDS011;59064;45.294;11.816;2023-02-01T03:24:14;86.70;;;41.60;;
68938;SDS011;59064;45.294;11.816;2023-02-01T03:26:44;91.50;;;45.70;;
68938;SDS011;59064;45.294;11.816;2023-02-01T03:29:18;82.90;;;41.50;;
68938;SDS011;59064;45.294;11.816;2023-02-01T03:31:50;84.30;;;45.00;;
68938;SDS011;59064;45.294;11.816;2023-02-01T03:34:16;86.50;;;45.90;;
68938;SDS011;59064;45.294;11.816;2023-02-01T03:36:52;90.60;;;45.40;;
68938;SDS011;59064;45.294;11.816;2023-02-01T03:39:41;82.80;;;41.90;;
68938;SDS011;59064;45.294;11.816;2023-02-01T03:42:17;85.70;;;44.00;;
68938;SDS011;59064;45.294;11.816;2023-02-01T03:45:13;88.20;;;45.20;;
68938;SDS011;59064;45.294;11.816;2023-02-01T03:47:48;85.60;;;43.60;;
68938;SDS011;59064;45.294;11.816;2023-02-01T03:50:20;81.20;;;43.30;;
68938;SDS011;59064;45.294;11.816;2023-02-01T03:52:59;78.50;;;39.20;;
68938;SDS011;59064;45.294;11.816;2023-02-01T03:55:32;81.80;;;43.20;;
68938;SDS011;59064;45.294;11.816;2023-02-01T03:58:09;84.40;;;41.50;;
68938;SDS011;59064;45.294;11.816;2023-02-01T04:00:59;73.60;;;37.80;;
68938;SDS011;59064;45.294;11.816;2023-02-01T04:03:26;70.40;;;39.00;;
68938;SDS011;59064;45.294;11.816;2023-02-01T04:05:53;87.20;;;42.60;;
68938;SDS011;59064;45.294;11.816;2023-02-01T04:08:20;80.60;;;41.00;;
68938;SDS011;59064;45.294;11.816;2023-02-01T04:10:46;75.80;;;42.30;;
68938;SDS011;59064;45.294;11.816;2023-02-01T04:13:12;79.50;;;40.20;;
68938;SDS011;59064;45.294;11.816;2023-02-01T04:15:38;76.50;;;41.50;;
68938;SDS011;59064;45.294;11.816;2023-02-01T04:18:04;77.20;;;39.20;;
68938;SDS011;59064;45.294;11.816;2023-02-01T04:20:30;73.90;;;38.80;;
68938;SDS011;59064;45.294;11.816;2023-02-01T04:22:56;70.70;;;38.00;;
68938;SDS011;59064;45.294;11.816;2023-02-01T04:25:22;77.20;;;40.30;;
68938;SDS011;59064;45.294;11.816;2023-02-01T04:27:48;82.30;;;40.20;;
68938;SDS011;59064;45.294;11.816;2023-02-01T04:30:14;77.10;;;39.90;;
68938;SDS011;59064;45.294;11.816;2023-02-01T04:32:40;84.60;;;43.90;;
68938;SDS011;59064;45.294;11.816;2023-02-01T04:35:07;80.00;;;41.00;;
68938;SDS011;59064;45.294;11.816;2023-02-01T04:37:33;82.50;;;41.70;;
68938;SDS011;59064;45.294;11.816;2023-02-01T04:39:59;77.50;;;40.80;;
68938;SDS011;59064;45.294;11.816;2023-02-01T04:42:25;70.20;;;35.80;;
68938;SDS011;59064;45.294;11.816;2023-02-01T04:44:50;73.90;;;36.20;;
68938;SDS011;59064;45.294;11.816;2023-02-01T04:47:16;62.50;;;30.50;;
68938;SDS011;59064;45.294;11.816;2023-02-01T04:49:42;82.30;;;43.10;;
68938;SDS011;59064;45.294;11.816;2023-02-01T04:52:07;85.90;;;43.30;;
68938;SDS011;59064;45.294;11.816;2023-02-01T04:54:33;89.80;;;44.20;;
68938;SDS011;59064;45.294;11.816;2023-02-01T04:56:59;85.10;;;37.40;;
68938;SDS011;59064;45.294;11.816;2023-02-01T04:59:25;95.30;;;41.30;;
68938;SDS011;59064;45.294;11.816;2023-02-01T05:01:51;86.20;;;41.90;;
68938;SDS011;59064;45.294;11.816;2023-02-01T05:04:17;100.20;;;44.50;;
68938;SDS011;59064;45.294;11.816;2023-02-01T05:06:44;99.10;;;46.20;;
68938;SDS011;59064;45.294;11.816;2023-02-01T05:09:10;100.50;;;45.50;;
68938;SDS011;59064;45.294;11.816;2023-02-01T05:11:36;111.00;;;48.00;;
68938;SDS011;59064;45.294;11.816;2023-02-01T05:14:20;111.30;;;50.40;;
68938;SDS011;59064;45.294;11.816;2023-02-01T05:16:46;93.30;;;41.10;;
68938;SDS011;59064;45.294;11.816;2023-02-01T05:19:11;112.20;;;47.10;;
68938;SDS011;59064;45.294;11.816;2023-02-01T05:21:37;113.00;;;51.10;;
68938;SDS011;59064;45.294;11.816;2023-02-01T05:24:03;117.00;;;49.60;;
68938;SDS011;59064;45.294;11.816;2023-02-01T05:26:36;93.10;;;42.20;;
68938;SDS011;59064;45.294;11.816;2023-02-01T05:29:03;95.20;;;42.00;;
68938;SDS011;59064;45.294;11.816;2023-02-01T05:31:30;109.10;;;49.20;;
68938;SDS011;59064;45.294;11.816;2023-02-01T05:33:55;110.80;;;49.50;;
68938;SDS011;59064;45.294;11.816;2023-02-01T05:36:21;112.40;;;51.00;;
68938;SDS011;59064;45.294;11.816;2023-02-01T05:38:47;107.60;;;48.50;;
68938;SDS011;59064;45.294;11.816;2023-02-01T05:41:12;116.90;;;48.00;;
68938;SDS011;59064;45.294;11.816;2023-02-01T05:43:38;108.40;;;48.80;;
68938;SDS011;59064;45.294;11.816;2023-02-01T05:46:04;118.30;;;51.70;;
68938;SDS011;59064;45.294;11.816;2023-02-01T05:48:29;119.30;;;51.10;;
68938;SDS011;59064;45.294;11.816;2023-02-01T05:50:55;112.60;;;50.10;;
68938;SDS011;59064;45.294;11.816;2023-02-01T05:53:21;129.60;;;55.30;;
68938;SDS011;59064;45.294;11.816;2023-02-01T05:55:47;121.00;;;51.10;;
68938;SDS011;59064;45.294;11.816;2023-02-01T05:58:12;105.10;;;45.10;;
68938;SDS011;59064;45.294;11.816;2023-02-01T06:00:38;122.40;;;49.60;;
68938;SDS011;59064;45.294;11.816;2023-02-01T06:03:05;120.40;;;53.70;;
68938;SDS011;59064;45.294;11.816;2023-02-01T06:05:31;121.90;;;52.80;;
68938;SDS011;59064;45.294;11.816;2023-02-01T06:07:56;124.30;;;53.40;;
68938;SDS011;59064;45.294;11.816;2023-02-01T06:10:23;119.50;;;51.90;;
68938;SDS011;59064;45.294;11.816;2023-02-01T06:12:49;116.10;;;53.70;;
68938;SDS011;59064;45.294;11.816;2023-02-01T06:15:15;116.50;;;52.00;;
68938;SDS011;59064;45.294;11.816;2023-02-01T06:17:45;105.60;;;47.80;;
68938;SDS011;59064;45.294;11.816;2023-02-01T06:20:13;117.30;;;52.10;;
68938;SDS011;59064;45.294;11.816;2023-02-01T06:22:40;123.20;;;53.30;;
68938;SDS011;59064;45.294;11.816;2023-02-01T06:25:08;114.70;;;50.10;;
68938;SDS011;59064;45.294;11.816;2023-02-01T06:27:35;99.40;;;46.60;;
68938;SDS011;59064;45.294;11.816;2023-02-01T06:30:02;113.20;;;50.50;;
68938;SDS011;59064;45.294;11.816;2023-02-01T06:32:29;95.00;;;45.60;;
68938;SDS011;59064;45.294;11.816;2023-02-01T06:34:55;101.60;;;49.50;;
68938;SDS011;59064;45.294;11.816;2023-02-01T06:37:23;83.70;;;37.80;;
68938;SDS011;59064;45.294;11.816;2023-02-01T06:39:50;102.60;;;47.20;;
68938;SDS011;59064;45.294;11.816;2023-02-01T06:42:16;103.20;;;47.60;;
68938;SDS011;59064;45.294;11.816;2023-02-01T06:44:42;97.80;;;46.80;;
68938;SDS011;59064;45.294;11.816;2023-02-01T06:47:08;100.90;;;48.30;;
68938;SDS011;59064;45.294;11.816;2023-02-01T06:49:33;79.80;;;35.60;;
68938;SDS011;59064;45.294;11.816;2023-02-01T06:51:59;88.40;;;40.80;;
68938;SDS011;59064;45.294;11.816;2023-02-01T06:54:26;93.00;;;44.30;;
68938;SDS011;59064;45.294;11.816;2023-02-01T06:56:53;77.90;;;34.10;;
68938;SDS011;59064;45.294;11.816;2023-02-01T06:59:18;90.10;;;42.40;;
68938;SDS011;59064;45.294;11.816;2023-02-01T07:01:44;96.90;;;45.40;;
68938;SDS011;59064;45.294;11.816;2023-02-01T07:04:11;103.00;;;48.20;;
68938;SDS011;59064;45.294;11.816;2023-02-01T07:06:38;82.90;;;42.00;;
68938;SDS011;59064;45.294;11.816;2023-02-01T07:09:04;81.00;;;37.60;;
68938;SDS011;59064;45.294;11.816;2023-02-01T07:11:31;96.00;;;45.20;;
68938;SDS011;59064;45.294;11.816;2023-02-01T07:13:57;99.30;;;46.10;;
68938;SDS011;59064;45.294;11.816;2023-02-01T07:16:23;94.20;;;44.50;;
68938;SDS011;59064;45.294;11.816;2023-02-01T07:18:51;101.50;;;44.60;;
68938;SDS011;59064;45.294;11.816;2023-02-01T07:21:18;97.00;;;45.80;;
68938;SDS011;59064;45.294;11.816;2023-02-01T07:23:44;92.80;;;42.90;;
68938;SDS011;59064;45.294;11.816;2023-02-01T07:26:11;99.90;;;45.20;;
68938;SDS011;59064;45.294;11.816;2023-02-01T07:28:38;97.10;;;42.70;;
68938;SDS011;59064;45.294;11.816;2023-02-01T07:31:06;96.50;;;43.20;;
68938;SDS011;59064;45.294;11.816;2023-02-01T07:33:32;91.40;;;41.10;;
68938;SDS011;59064;45.294;11.816;2023-02-01T07:36:00;95.80;;;43.20;;
68938;SDS011;59064;45.294;11.816;2023-02-01T07:38:28;96.20;;;44.90;;
68938;SDS011;59064;45.294;11.816;2023-02-01T07:41:01;91.50;;;42.80;;
68938;SDS011;59064;45.294;11.816;2023-02-01T07:43:28;103.00;;;46.30;;
68938;SDS011;59064;45.294;11.816;2023-02-01T07:45:55;98.80;;;44.70;;
68938;SDS011;59064;45.294;11.816;2023-02-01T07:48:22;100.80;;;45.50;;
68938;SDS011;59064;45.294;11.816;2023-02-01T07:50:56;99.80;;;46.50;;
68938;SDS011;59064;45.294;11.816;2023-02-01T07:53:23;100.10;;;49.30;;
68938;SDS011;59064;45.294;11.816;2023-02-01T07:55:49;100.00;;;47.40;;
68938;SDS011;59064;45.294;11.816;2023-02-01T07:58:15;83.30;;;42.20;;
68938;SDS011;59064;45.294;11.816;2023-02-01T08:00:40;88.90;;;43.70;;
68938;SDS011;59064;45.294;11.816;2023-02-01T08:03:24;98.60;;;48.00;;
68938;SDS011;59064;45.294;11.816;2023-02-01T08:05:56;90.80;;;43.60;;
68938;SDS011;59064;45.294;11.816;2023-02-01T08:08:22;92.90;;;43.80;;
68938;SDS011;59064;45.294;11.816;2023-02-01T08:10:48;88.40;;;42.90;;
68938;SDS011;59064;45.294;11.816;2023-02-01T08:13:14;81.90;;;39.20;;
68938;SDS011;59064;45.294;11.816;2023-02-01T08:15:40;92.90;;;45.10;;
68938;SDS011;59064;45.294;11.816;2023-02-01T08:18:06;103.80;;;50.40;;
68938;SDS011;59064;45.294;11.816;2023-02-01T08:20:32;98.90;;;47.40;;
68938;SDS011;59064;45.294;11.816;2023-02-01T08:23:01;104.10;;;50.50;;
68938;SDS011;59064;45.294;11.816;2023-02-01T08:25:27;90.60;;;43.30;;
68938;SDS011;59064;45.294;11.816;2023-02-01T08:27:53;103.90;;;49.60;;
68938;SDS011;59064;45.294;11.816;2023-02-01T08:30:20;101.80;;;50.50;;
68938;SDS011;59064;45.294;11.816;2023-02-01T08:32:46;96.10;;;49.60;;
68938;SDS011;59064;45.294;11.816;2023-02-01T08:35:13;97.20;;;50.80;;
68938;SDS011;59064;45.294;11.816;2023-02-01T08:37:39;94.80;;;49.90;;
68938;SDS011;59064;45.294;11.816;2023-02-01T08:40:05;100.30;;;51.60;;
68938;SDS011;59064;45.294;11.816;2023-02-01T08:42:32;80.10;;;40.10;;
68938;SDS011;59064;45.294;11.816;2023-02-01T08:45:20;84.10;;;43.00;;
68938;SDS011;59064;45.294;11.816;2023-02-01T08:47:49;82.60;;;45.60;;
68938;SDS011;59064;45.294;11.816;2023-02-01T08:50:19;89.50;;;47.50;;
68938;SDS011;59064;45.294;11.816;2023-02-01T08:52:46;92.30;;;49.50;;
68938;SDS011;59064;45.294;11.816;2023-02-01T08:55:12;89.10;;;46.80;;
68938;SDS011;59064;45.294;11.816;2023-02-01T08:57:39;86.20;;;44.90;;
68938;SDS011;59064;45.294;11.816;2023-02-01T09:00:07;90.00;;;48.90;;
68938;SDS011;59064;45.294;11.816;2023-02-01T09:02:35;79.20;;;40.70;;
68938;SDS011;59064;45.294;11.816;2023-02-01T09:05:01;75.60;;;38.80;;
68938;SDS011;59064;45.294;11.816;2023-02-01T09:07:28;87.10;;;44.00;;
68938;SDS011;59064;45.294;11.816;2023-02-01T09:09:54;96.30;;;49.60;;
68938;SDS011;59064;45.294;11.816;2023-02-01T09:12:22;88.80;;;46.90;;
68938;SDS011;59064;45.294;11.816;2023-02-01T09:14:48;91.00;;;47.60;;
68938;SDS011;59064;45.294;11.816;2023-02-01T09:17:13;88.10;;;45.60;;
68938;SDS011;59064;45.294;11.816;2023-02-01T09:19:39;78.40;;;42.10;;
68938;SDS011;59064;45.294;11.816;2023-02-01T09:22:05;83.10;;;44.70;;
68938;SDS011;59064;45.294;11.816;2023-02-01T09:24:31;89.30;;;47.00;;
68938;SDS011;59064;45.294;11.816;2023-02-01T09:26:56;77.40;;;41.40;;
68938;SDS011;59064;45.294;11.816;2023-02-01T09:29:22;88.20;;;47.10;;
68938;SDS011;59064;45.294;11.816;2023-02-01T09:31:48;75.90;;;40.50;;
68938;SDS011;59064;45.294;11.816;2023-02-01T09:34:13;79.90;;;40.90;;
68938;SDS011;59064;45.294;11.816;2023-02-01T09:36:39;76.60;;;42.30;;
68938;SDS011;59064;45.294;11.816;2023-02-01T09:39:05;71.60;;;39.50;;
68938;SDS011;59064;45.294;11.816;2023-02-01T09:46:57;69.40;;;37.80;;
68938;SDS011;59064;45.294;11.816;2023-02-01T09:49:30;69.00;;;37.90;;
68938;SDS011;59064;45.294;11.816;2023-02-01T09:52:00;71.00;;;38.70;;
68938;SDS011;59064;45.294;11.816;2023-02-01T09:57:26;66.20;;;36.80;;
68938;SDS011;59064;45.294;11.816;2023-02-01T10:00:19;70.10;;;37.00;;
68938;SDS011;59064;45.294;11.816;2023-02-01T10:02:53;63.90;;;32.90;;
68938;SDS011;59064;45.294;11.816;2023-02-01T10:10:51;60.80;;;31.70;;
68938;SDS011;59064;45.294;11.816;2023-02-01T10:19:14;61.80;;;33.20;;
68938;SDS011;59064;45.294;11.816;2023-02-01T10:27:07;65.90;;;35.80;;
68938;SDS011;59064;45.294;11.816;2023-02-01T10:29:43;65.80;;;35.50;;
68938;SDS011;59064;45.294;11.816;2023-02-01T10:32:17;65.80;;;34.90;;
68938;SDS011;59064;45.294;11.816;2023-02-01T10:34:50;68.60;;;37.00;;
68938;SDS011;59064;45.294;11.816;2023-02-01T10:37:31;69.70;;;37.60;;
68938;SDS011;59064;45.294;11.816;2023-02-01T10:40:19;65.90;;;34.80;;
68938;SDS011;59064;45.294;11.816;2023-02-01T10:42:51;65.90;;;33.90;;
68938;SDS011;59064;45.294;11.816;2023-02-01T10:45:21;64.40;;;31.30;;
68938;SDS011;59064;45.294;11.816;2023-02-01T10:47:51;62.20;;;32.70;;
68938;SDS011;59064;45.294;11.816;2023-02-01T10:50:34;70.30;;;38.40;;
68938;SDS011;59064;45.294;11.816;2023-02-01T10:53:18;73.50;;;40.50;;
68938;SDS011;59064;45.294;11.816;2023-02-01T10:55:51;73.60;;;39.30;;
68938;SDS011;59064;45.294;11.816;2023-02-01T10:58:20;69.30;;;37.70;;
68938;SDS011;59064;45.294;11.816;2023-02-01T11:00:47;72.90;;;39.40;;
68938;SDS011;59064;45.294;11.816;2023-02-01T11:11:56;64.10;;;34.80;;
68938;SDS011;59064;45.294;11.816;2023-02-01T11:16:52;68.00;;;36.30;;
68938;SDS011;59064;45.294;11.816;2023-02-01T11:19:26;65.40;;;31.60;;
68938;SDS011;59064;45.294;11.816;2023-02-01T11:21:57;74.90;;;41.40;;
68938;SDS011;59064;45.294;11.816;2023-02-01T11:24:29;62.40;;;34.90;;
68938;SDS011;59064;45.294;11.816;2023-02-01T11:27:02;69.80;;;39.70;;
68938;SDS011;59064;45.294;11.816;2023-02-01T11:29:38;71.30;;;38.20;;
68938;SDS011;59064;45.294;11.816;2023-02-01T11:32:07;68.60;;;38.40;;
68938;SDS011;59064;45.294;11.816;2023-02-01T11:34:42;74.50;;;43.60;;
68938;SDS011;59064;45.294;11.816;2023-02-01T11:37:27;72.90;;;41.00;;
68938;SDS011;59064;45.294;11.816;2023-02-01T11:39:58;72.40;;;41.20;;
68938;SDS011;59064;45.294;11.816;2023-02-01T11:42:27;66.60;;;38.30;;
68938;SDS011;59064;45.294;11.816;2023-02-01T11:47:46;65.80;;;38.00;;
68938;SDS011;59064;45.294;11.816;2023-02-01T11:50:37;63.70;;;36.10;;
68938;SDS011;59064;45.294;11.816;2023-02-01T11:59:22;60.10;;;32.70;;
68938;SDS011;59064;45.294;11.816;2023-02-01T12:02:26;59.70;;;33.30;;
68938;SDS011;59064;45.294;11.816;2023-02-01T12:10:44;65.10;;;35.90;;
68938;SDS011;59064;45.294;11.816;2023-02-01T12:23:16;58.30;;;33.80;;
68938;SDS011;59064;45.294;11.816;2023-02-01T12:42:43;65.00;;;38.40;;
68938;SDS011;59064;45.294;11.816;2023-02-01T12:45:39;67.80;;;41.20;;
68938;SDS011;59064;45.294;11.816;2023-02-01T12:48:26;72.90;;;43.70;;
68938;SDS011;59064;45.294;11.816;2023-02-01T12:50:58;66.30;;;39.40;;
68938;SDS011;59064;45.294;11.816;2023-02-01T12:56:47;59.70;;;35.40;;
68938;SDS011;59064;45.294;11.816;2023-02-01T12:59:23;69.10;;;41.70;;
68938;SDS011;59064;45.294;11.816;2023-02-01T13:01:55;64.20;;;39.10;;
68938;SDS011;59064;45.294;11.816;2023-02-01T13:04:32;61.00;;;37.30;;
68938;SDS011;59064;45.294;11.816;2023-02-01T13:07:12;64.30;;;38.70;;
68938;SDS011;59064;45.294;11.816;2023-02-01T13:09:51;69.70;;;42.80;;
68938;SDS011;59064;45.294;11.816;2023-02-01T13:15:28;67.20;;;41.30;;
68938;SDS011;59064;45.294;11.816;2023-02-01T13:18:00;65.10;;;38.30;;
68938;SDS011;59064;45.294;11.816;2023-02-01T13:20:35;68.90;;;41.80;;
68938;SDS011;59064;45.294;11.816;2023-02-01T13:23:27;71.80;;;41.60;;
68938;SDS011;59064;45.294;11.816;2023-02-01T13:25:56;69.10;;;43.90;;
68938;SDS011;59064;45.294;11.816;2023-02-01T13:28:55;69.40;;;42.70;;
68938;SDS011;59064;45.294;11.816;2023-02-01T13:39:48;79.70;;;49.40;;
68938;SDS011;59064;45.294;11.816;2023-02-01T13:42:29;80.10;;;46.90;;
68938;SDS011;59064;45.294;11.816;2023-02-01T13:45:13;75.50;;;44.40;;
68938;SDS011;59064;45.294;11.816;2023-02-01T13:47:46;82.10;;;47.80;;
68938;SDS011;59064;45.294;11.816;2023-02-01T13:55:58;73.90;;;44.00;;
68938;SDS011;59064;45.294;11.816;2023-02-01T14:01:31;77.50;;;47.10;;
68938;SDS011;59064;45.294;11.816;2023-02-01T14:04:03;79.50;;;49.40;;
68938;SDS011;59064;45.294;11.816;2023-02-01T14:06:53;81.80;;;45.90;;
68938;SDS011;59064;45.294;11.816;2023-02-01T14:09:34;81.00;;;46.50;;
68938;SDS011;59064;45.294;11.816;2023-02-01T14:17:46;84.30;;;48.60;;
68938;SDS011;59064;45.294;11.816;2023-02-01T14:20:50;78.10;;;46.30;;
68938;SDS011;59064;45.294;11.816;2023-02-01T14:24:16;80.60;;;47.80;;
68938;SDS011;59064;45.294;11.816;2023-02-01T14:26:50;81.80;;;45.90;;
68938;SDS011;59064;45.294;11.816;2023-02-01T14:29:40;80.90;;;46.70;;
68938;SDS011;59064;45.294;11.816;2023-02-01T14:32:18;85.20;;;46.10;;
68938;SDS011;59064;45.294;11.816;2023-02-01T14:37:32;77.10;;;45.60;;
68938;SDS011;59064;45.294;11.816;2023-02-01T14:40:16;82.50;;;45.60;;
68938;SDS011;59064;45.294;11.816;2023-02-01T14:42:50;80.40;;;46.80;;
68938;SDS011;59064;45.294;11.816;2023-02-01T14:55:46;77.70;;;44.20;;
68938;SDS011;59064;45.294;11.816;2023-02-01T15:01:36;79.30;;;47.60;;
68938;SDS011;59064;45.294;11.816;2023-02-01T15:04:12;79.50;;;47.30;;
68938;SDS011;59064;45.294;11.816;2023-02-01T15:12:01;77.70;;;43.50;;
68938;SDS011;59064;45.294;11.816;2023-02-01T15:14:46;72.70;;;42.30;;
68938;SDS011;59064;45.294;11.816;2023-02-01T15:17:22;76.70;;;45.10;;
68938;SDS011;59064;45.294;11.816;2023-02-01T15:19:55;70.40;;;42.20;;
68938;SDS011;59064;45.294;11.816;2023-02-01T15:22:22;73.10;;;43.00;;
68938;SDS011;59064;45.294;11.816;2023-02-01T15:24:53;73.10;;;42.90;;
68938;SDS011;59064;45.294;11.816;2023-02-01T15:27:20;78.20;;;43.50;;
68938;SDS011;59064;45.294;11.816;2023-02-01T15:29:46;72.20;;;40.80;;
68938;SDS011;59064;45.294;11.816;2023-02-01T15:32:33;67.90;;;38.40;;
68938;SDS011;59064;45.294;11.816;2023-02-01T15:35:03;74.10;;;42.90;;
68938;SDS011;59064;45.294;11.816;2023-02-01T15:37:29;71.00;;;39.30;;
68938;SDS011;59064;45.294;11.816;2023-02-01T15:42:49;83.80;;;44.50;;
68938;SDS011;59064;45.294;11.816;2023-02-01T15:45:19;79.00;;;43.80;;
68938;SDS011;59064;45.294;11.816;2023-02-01T15:47:50;79.70;;;41.60;;
68938;SDS011;59064;45.294;11.816;2023-02-01T15:50:20;74.20;;;41.00;;
68938;SDS011;59064;45.294;11.816;2023-02-01T15:52:48;84.00;;;44.80;;
68938;SDS011;59064;45.294;11.816;2023-02-01T15:58:09;83.00;;;52.90;;
68938;SDS011;59064;45.294;11.816;2023-02-01T16:00:52;80.80;;;42.30;;
68938;SDS011;59064;45.294;11.816;2023-02-01T16:03:32;85.10;;;41.70;;
68938;SDS011;59064;45.294;11.816;2023-02-01T16:06:09;80.40;;;41.50;;
68938;SDS011;59064;45.294;11.816;2023-02-01T16:11:26;85.10;;;41.50;;
68938;SDS011;59064;45.294;11.816;2023-02-01T16:13:57;79.30;;;41.10;;
68938;SDS011;59064;45.294;11.816;2023-02-01T16:16:26;88.60;;;42.00;;
68938;SDS011;59064;45.294;11.816;2023-02-01T16:18:53;90.60;;;43.70;;
68938;SDS011;59064;45.294;11.816;2023-02-01T16:21:19;79.80;;;37.80;;
68938;SDS011;59064;45.294;11.816;2023-02-01T16:23:49;87.20;;;46.10;;
68938;SDS011;59064;45.294;11.816;2023-02-01T16:26:16;73.00;;;38.50;;
68938;SDS011;59064;45.294;11.816;2023-02-01T16:28:43;85.90;;;42.30;;
68938;SDS011;59064;45.294;11.816;2023-02-01T16:31:12;94.00;;;50.90;;
68938;SDS011;59064;45.294;11.816;2023-02-01T16:33:49;93.00;;;47.30;;
68938;SDS011;59064;45.294;11.816;2023-02-01T16:36:16;106.40;;;53.20;;
68938;SDS011;59064;45.294;11.816;2023-02-01T16:38:43;86.60;;;43.70;;
68938;SDS011;59064;45.294;11.816;2023-02-01T16:41:13;89.90;;;45.20;;
68938;SDS011;59064;45.294;11.816;2023-02-01T16:43:40;103.20;;;53.30;;
68938;SDS011;59064;45.294;11.816;2023-02-01T16:46:13;99.50;;;47.80;;
68938;SDS011;59064;45.294;11.816;2023-02-01T16:48:43;55.80;;;22.90;;
68938;SDS011;59064;45.294;11.816;2023-02-01T16:51:14;100.40;;;50.50;;
68938;SDS011;59064;45.294;11.816;2023-02-01T16:53:42;95.80;;;47.00;;
68938;SDS011;59064;45.294;11.816;2023-02-01T16:56:18;105.10;;;52.90;;
68938;SDS011;59064;45.294;11.816;2023-02-01T16:58:46;98.40;;;48.20;;
68938;SDS011;59064;45.294;11.816;2023-02-01T17:01:14;102.10;;;49.00;;
68938;SDS011;59064;45.294;11.816;2023-02-01T17:03:42;101.70;;;53.10;;
68938;SDS011;59064;45.294;11.816;2023-02-01T17:06:13;106.80;;;55.60;;
68938;SDS011;59064;45.294;11.816;2023-02-01T17:08:43;100.80;;;53.50;;
68938;SDS011;59064;45.294;11.816;2023-02-01T17:11:12;90.60;;;47.00;;
68938;SDS011;59064;45.294;11.816;2023-02-01T17:13:38;83.90;;;42.70;;
68938;SDS011;59064;45.294;11.816;2023-02-01T17:16:30;100.40;;;50.60;;
68938;SDS011;59064;45.294;11.816;2023-02-01T17:19:10;98.50;;;50.10;;
68938;SDS011;59064;45.294;11.816;2023-02-01T17:21:43;97.90;;;51.90;;
68938;SDS011;59064;45.294;11.816;2023-02-01T17:24:16;89.90;;;46.40;;